Tiempo atmosférico en la estación meteorológica de Rojales, Alacant/Alicante (31 m.)



Fecha
DESCASC
Temp. máxima en grados centígrados (hora)
DESCASC
Temp. mínima en grados centígrados (hora)
DESCASC
Temp. media en grados centígrados
DESCASC
Racha de viento máxima en m/sg (hora)
DESCASC
Velocidad máxima media en intervalos de 10 minutos(hora)
DESCASC
Precipitaciones diarias en mm
DESCASC
Precipitaciones de 00:00 a 06:00 en mm
DESCASC
Precipitaciones de 06:00 a 12:00 en mm
DESCASC
Precipitaciones de 12:00 a 18:00 en mm
DESCASC
Precipitaciones de 18:00 a 24:00 en mm
DESCASC
28-02-2021 16.1 (12:10) 10.4 (00:00) 13.3 11.94 (23:30) 8.06 (23:20) 0 0 0 0 0
27-02-2021 16 (15:20) 10.2 (22:30) 13.1 7.78 (00:30) 4.44 (00:40) 0 0 0 0 0
26-02-2021 16.4 (13:20) 12.4 (05:10) 14.4 11.39 (10:50) 6.67 (09:40) 0 0 0 0 0
25-02-2021 16.2 (12:20) 9.3 (00:00) 12.8 8.33 (22:30) 5.28 (13:10) 0 0 0 0 0
24-02-2021 17.1 (11:00) 9.8 (00:00) 13.5 9.44 (12:10) 6.11 (11:40) 0 0 0 0 0
23-02-2021 17.1 (13:20) 8.2 (00:00) 12.7 10.28 (12:00) 6.39 (12:30) 0 0 0 0 0
22-02-2021 18.2 (16:10) 11 (00:00) 14.6 12.22 (11:40) 7.78 (10:50) 0 0 0 0 0
21-02-2021 18 (16:50) 9.2 (00:00) 13.6 8.33 (15:10) 5.28 (15:10) 0 0 0 0 0
20-02-2021 15.5 (14:30) 9.8 (00:00) 12.7 9.72 (23:40) 5.83 (23:40) 0 0 0 0 0
19-02-2021 18.1 (15:10) 7.6 (00:00) 12.9 5.83 (16:00) 3.89 (16:00) 0 0 0 0 0
18-02-2021 17.2 (14:20) 6.4 (00:00) 11.8 5.28 (17:30) 3.06 (16:30) 0 0 0 0 0
17-02-2021 18.1 (15:40) 6.6 (00:00) 12.4 5 (12:40) 3.33 (12:40) 0 0 0 0 0
16-02-2021 17.8 (14:30) 7.4 (00:00) 12.6 7.78 (16:30) 5 (16:30) 0 0 0 0 0
15-02-2021 16.7 (13:20) 8.7 (00:00) 12.7 7.22 (14:10) 3.89 (12:40) 0 0 0 0 0
14-02-2021 17.2 (12:20) 8.9 (00:00) 13.1 10.83 (14:20) 6.11 (14:20) 0 0 0 0 0
13-02-2021 23.4 (16:30) 11.4 (00:00) 17.4 11.39 (01:50) 7.78 (02:00) 0 0 0 0 0
12-02-2021 23.7 (14:40) 13.3 (00:00) 18.5 16.67 (15:00) 11.11 (14:50) 0 0 0 0 0
11-02-2021 23 (15:30) 10.3 (00:00) 16.7 8.61 (16:20) 5 (16:40) 0 0 0 0 0
10-02-2021 22.6 (16:20) 11.7 (00:00) 17.2 13.61 (15:20) 9.17 (15:20) 0 0 0 0 0
09-02-2021 15.7 (15:30) 8.1 (00:00) 11.9 7.22 (19:10) 4.17 (19:30) 0 0 0 0 0
08-02-2021 20.1 (16:10) 11.6 (00:00) 15.9 12.5 (18:10) 7.5 (18:00) 0 0 0 0 0
07-02-2021 18.8 (15:10) 9.5 (00:00) 14.1 15.28 (19:50) 8.61 (19:50) 0 0 0 0 0
06-02-2021 20.7 (15:30) 8.9 (00:00) 14.8 8.33 (16:40) 5.28 (22:50) 0 0 0 0 0
05-02-2021 16.5 (15:20) 9.2 (00:00) 12.8 10 (13:10) 5.83 (14:20) 0 0 0 0 0
04-02-2021 15.8 (13:50) 11 (00:00) 13.4 5.28 (14:40) 3.06 (14:30) 0 0 0 0 0
03-02-2021 21.1 (16:30) 8.8 (00:00) 15 6.11 (17:30) 4.72 (18:50) 0 0 0 0 0

Gráficas

Temp. máximas Temp. mínimas Temp. medias Precipitaciones Rachas de viento máximas Velocidades máximas media en intervalos de 10 minutos

Datos horarios

Fecha y hora oficial Temperatura (ºC) Velocidad del viento (km/h) Dirección del viento Racha (km/h) Dirección de racha Precipitación (mm) Presión (hPa) Tendencia (hPa) Humedad (%)
2021-03-04 23:00:00 13 8 Nordeste 21 Nordeste 0 -- -- 80
2021-03-04 22:00:00 13.3 10 Nordeste 24 Nordeste 0 -- -- 80
2021-03-04 21:00:00 13.3 11 Nordeste 19 Nordeste 0 -- -- 81
2021-03-04 20:00:00 13.3 8 Este 17 Nordeste 0 -- -- 83
2021-03-04 19:00:00 14 13 Este 21 Este 0 -- -- 80
2021-03-04 18:00:00 14.8 10 Este 22 Este 0 -- -- 75
2021-03-04 17:00:00 15.1 15 Este 26 Este 0 -- -- 72
2021-03-04 16:00:00 15.9 14 Este 31 Nordeste 0 -- -- 70
2021-03-04 15:00:00 16.4 17 Este 25 Nordeste 0 -- -- 64
2021-03-04 14:00:00 16.5 14 Nordeste 27 Este 0 -- -- 59
2021-03-04 13:00:00 16.7 12 Nordeste 25 Nordeste 0 -- -- 62
2021-03-04 12:00:00 17 12 Nordeste 19 Nordeste 0 -- -- 65
2021-03-04 11:00:00 16 4 Norte 10 Oeste 0 -- -- 68
2021-03-04 10:00:00 12.9 8 Oeste 12 Oeste 0 -- -- 78
2021-03-04 09:00:00 10.7 4 Sudoeste 8 Sudoeste 0 -- -- 88
2021-03-04 08:00:00 9.7 0 Calma 4 Sudeste 0 -- -- 89
2021-03-04 07:00:00 9.7 3 Sur 6 Sudoeste 0 -- -- 91
2021-03-04 06:00:00 9.4 0 Calma 8 Oeste 0 -- -- 90
2021-03-04 05:00:00 9.8 3 Oeste 8 Oeste 0 -- -- 90
2021-03-04 04:00:00 10.4 3 Sudoeste 7 Oeste 0 -- -- 88
2021-03-04 03:00:00 10.8 5 Oeste 10 Oeste 0 -- -- 85
2021-03-04 02:00:00 11 0 Calma 8 Este 0 -- -- 84
2021-03-04 01:00:00 11.3 2 Nordeste 8 Nordeste 0 -- -- 88
2021-03-04 00:00:00 12.4 7 Nordeste 12 Este 0 -- -- 89
2021-03-03 23:00:00 12.3 5 Nordeste 9 Nordeste 0 -- -- 86
2021-03-03 22:00:00 12.5 4 Sudoeste 12 Este 0 -- -- 81
2021-03-03 21:00:00 13.9 8 Nordeste 21 Nordeste 0 -- -- 75
2021-03-03 20:00:00 13.7 8 Nordeste 23 Nordeste 0 -- -- 79
2021-03-03 19:00:00 14.2 15 Nordeste 27 Nordeste 0 -- -- 79
2021-03-03 18:00:00 15.1 17 Nordeste 30 Este 0 -- -- 75
2021-03-03 17:00:00 15.9 18 Nordeste 31 Nordeste 0 -- -- 69
2021-03-03 16:00:00 16.8 18 Nordeste 32 Este 0 -- -- 64
2021-03-03 15:00:00 16.1 18 Nordeste 36 Nordeste 0 -- -- 69
2021-03-03 14:00:00 15.8 15 Nordeste 35 Este 0 -- -- 75
2021-03-03 13:00:00 15.3 19 Nordeste 34 Nordeste 0 -- -- 76
2021-03-03 12:00:00 15.3 16 Nordeste 30 Este 0 -- -- 77
2021-03-03 11:00:00 14.7 6 Nordeste 16 Este 0 -- -- 80
2021-03-03 10:00:00 13.5 3 Sudoeste 9 Oeste 0 -- -- 85
2021-03-03 09:00:00 13.1 5 Oeste 8 Oeste 0 -- -- 86
2021-03-03 08:00:00 12.5 4 Oeste 17 Nordeste 0 -- -- 87
2021-03-03 07:00:00 13.9 14 Nordeste 33 Nordeste 0 -- -- 85
2021-03-03 06:00:00 13.9 17 Nordeste 35 Este 0 -- -- 86
2021-03-03 05:00:00 12.9 6 Este 15 Sudeste 0 -- -- 86
2021-03-03 04:00:00 12.1 6 Sudeste 9 Sudeste 0 -- -- 88
2021-03-03 03:00:00 12.1 2 Sur 10 Noroeste 0 -- -- 90
2021-03-03 02:00:00 12.7 5 Oeste 10 Oeste 0 -- -- 88
2021-03-03 01:00:00 14 8 Noroeste 22 Este 0 -- -- 81
2021-03-03 00:00:00 14.4 9 Este 19 Nordeste 0 -- -- 82
2021-03-02 23:00:00 13.9 9 Este 15 Nordeste 0 -- -- 85
2021-03-02 22:00:00 14.4 5 Norte 25 Nordeste 0 -- -- 83
2021-03-02 21:00:00 14.6 17 Nordeste 39 Nordeste 0 -- -- 83
2021-03-02 20:00:00 14.7 18 Nordeste 32 Nordeste 0 -- -- 84
2021-03-02 19:00:00 15.1 13 Este 23 Este 0 -- -- 82
2021-03-02 18:00:00 15.9 4 Nordeste 8 Nordeste 0 -- -- 76
2021-03-02 17:00:00 16.2 4 Noroeste 10 Noroeste 0 -- -- 75
2021-03-02 16:00:00 15.6 9 Nordeste 24 Nordeste 0 -- -- 80
2021-03-02 15:00:00 15.6 14 Nordeste 35 Nordeste 0 -- -- 79
2021-03-02 14:00:00 15.9 13 Nordeste 22 Este 0 -- -- 76
2021-03-02 13:00:00 15.7 3 Noroeste 12 Noroeste 0 -- -- 73
2021-03-02 12:00:00 14.5 9 Oeste 12 Oeste 0 -- -- 75
2021-03-02 11:00:00 13.2 3 Oeste 5 Sudoeste 0 -- -- 77
2021-03-02 10:00:00 12.1 0 Calma 9 Sudoeste 0 -- -- 81
2021-03-02 09:00:00 10.5 6 Sudoeste 13 Oeste 0 -- -- 84
2021-03-02 08:00:00 10.2 3 Oeste 13 Sudoeste 0 -- -- 85
2021-03-02 07:00:00 9.8 4 Oeste 9 Oeste 0 -- -- 85
2021-03-02 06:00:00 10.2 6 Sudoeste 8 Sudoeste 0 -- -- 84
2021-03-02 05:00:00 10 2 Oeste 9 Sudoeste 0 -- -- 83
2021-03-02 04:00:00 10.5 6 Oeste 12 Sudoeste 0 -- -- 84
2021-03-02 03:00:00 10.8 0 Calma 8 Sudoeste 0 -- -- 82
2021-03-02 02:00:00 11.3 5 Oeste 6 Oeste 0 -- -- 80
2021-03-02 01:00:00 12.7 0 Calma 16 Norte 0 -- -- 74
2021-03-02 00:00:00 13.7 13 Norte 24 Nordeste 0 -- -- 75
2021-03-01 23:00:00 14 14 Norte 22 Nordeste 0 -- -- 73
2021-03-01 22:00:00 14.4 13 Norte 33 Nordeste 0 -- -- 72
2021-03-01 21:00:00 14.3 16 Nordeste 35 Nordeste 0 -- -- 74
2021-03-01 20:00:00 14.5 21 Nordeste 35 Nordeste 0 -- -- 75
2021-03-01 19:00:00 14.3 20 Nordeste 46 Nordeste 0 -- -- 77
2021-03-01 18:00:00 14.6 26 Nordeste 55 Nordeste 0 -- -- 78
2021-03-01 17:00:00 14.9 31 Nordeste 50 Nordeste 0 -- -- 76
2021-03-01 16:00:00 15.4 28 Nordeste 53 Nordeste 0 -- -- 74
2021-03-01 15:00:00 15.8 34 Nordeste 53 Nordeste 0 -- -- 71
2021-03-01 14:00:00 16 29 Nordeste 56 Nordeste 0 -- -- 70
2021-03-01 13:00:00 15.9 33 Nordeste 55 Nordeste 0 -- -- 72
2021-03-01 12:00:00 15.5 31 Nordeste 54 Nordeste 0 -- -- 73
2021-03-01 11:00:00 15.2 31 Nordeste 51 Nordeste 0 -- -- 74
2021-03-01 10:00:00 14.8 28 Nordeste 46 Nordeste 0 -- -- 75
2021-03-01 09:00:00 14.4 23 Nordeste 43 Nordeste 0 -- -- 72
2021-03-01 08:00:00 14.2 25 Nordeste 46 Nordeste 0 -- -- 71
2021-03-01 07:00:00 13.8 22 Nordeste 44 Nordeste 0 -- -- 75
2021-03-01 06:00:00 13.7 23 Nordeste 45 Nordeste 0 -- -- 78
2021-03-01 05:00:00 13.7 24 Nordeste 43 Nordeste 0 -- -- 78
2021-03-01 04:00:00 13.7 23 Nordeste 44 Nordeste 0 -- -- 74
2021-03-01 03:00:00 13.9 19 Nordeste 31 Nordeste 0 -- -- 73
2021-03-01 02:00:00 13.8 18 Nordeste 28 Nordeste 0 -- -- 76
2021-03-01 01:00:00 13.6 16 Nordeste 36 Nordeste 0 -- -- 79
2021-03-01 00:00:00 13.8 18 Nordeste 43 Nordeste 0 -- -- 81
2021-02-28 23:00:00 13.9 26 Nordeste 42 Este 0 -- -- 78
2021-02-28 22:00:00 14 15 Nordeste 34 Nordeste 0 -- -- 72
2021-02-28 21:00:00 13.8 17 Nordeste 38 Este 0 -- -- 75
2021-02-28 20:00:00 13.6 20 Nordeste 37 Nordeste 0 -- -- 78
2021-02-28 19:00:00 13.7 18 Nordeste 35 Nordeste 0 -- -- 79
2021-02-28 18:00:00 14.3 22 Nordeste 39 Nordeste 0 -- -- 77
2021-02-28 17:00:00 14.6 21 Nordeste 40 Nordeste 0 -- -- 76
2021-02-28 16:00:00 14.9 24 Nordeste 40 Nordeste 0 -- -- 74
2021-02-28 15:00:00 14.5 23 Nordeste 39 Nordeste 0 -- -- 75
2021-02-28 14:00:00 15.3 21 Nordeste 35 Nordeste 0 -- -- 71
2021-02-28 13:00:00 15.4 19 Nordeste 41 Nordeste 0 -- -- 71
2021-02-28 12:00:00 16 25 Nordeste 40 Nordeste 0 -- -- 63
2021-02-28 11:00:00 15.5 21 Nordeste 38 Nordeste 0 -- -- 68
2021-02-28 10:00:00 14.2 18 Nordeste 33 Nordeste 0 -- -- 70
2021-02-28 09:00:00 14.3 21 Nordeste 33 Nordeste 0 -- -- 71
2021-02-28 08:00:00 13.1 13 Nordeste 23 Nordeste 0 -- -- 77
2021-02-28 07:00:00 13.2 14 Nordeste 26 Nordeste 0 -- -- 76
2021-02-28 06:00:00 12.6 14 Nordeste 23 Norte 0 -- -- 83
2021-02-28 05:00:00 10.8 0 Calma 9 Norte 0 -- -- 80
2021-02-28 04:00:00 11.3 3 Norte 6 Norte 0 -- -- 77
2021-02-28 03:00:00 11.4 0 Calma 7 Norte 0 -- -- 80
2021-02-28 02:00:00 11.2 3 Noroeste 7 Oeste 0 -- -- 82
2021-02-28 01:00:00 10.7 2 Sudoeste 6 Sudoeste 0 -- -- 84
2021-02-28 00:00:00 10.4 3 Noroeste 6 Noroeste 0 -- -- 86
2021-02-27 23:00:00 10.4 0 Calma 8 Norte 0 -- -- 88
2021-02-27 22:00:00 10.3 5 Nordeste 9 Nordeste 0 -- -- 86
2021-02-27 21:00:00 11.3 6 Nordeste 11 Este 0 -- -- 82
2021-02-27 20:00:00 12.1 6 Este 11 Nordeste 0 -- -- 79
2021-02-27 19:00:00 12.7 8 Este 17 Este 0 -- -- 78
2021-02-27 18:00:00 13.5 9 Este 21 Este 0 -- -- 74
2021-02-27 17:00:00 14.7 11 Este 20 Este 0 -- -- 62
2021-02-27 16:00:00 15.8 11 Este 21 Este 0 -- -- 58
2021-02-27 15:00:00 15.5 11 Este 21 Este 0 -- -- 59
2021-02-27 14:00:00 15.6 7 Norte 16 Nordeste 0 -- -- 58
2021-02-27 13:00:00 15.2 7 Norte 20 Nordeste 0 -- -- 59
2021-02-27 12:00:00 14.1 9 Norte 18 Norte 0 -- -- 62
2021-02-27 11:00:00 12.7 3 Norte 7 Norte 0 -- -- 72
2021-02-27 10:00:00 11.5 3 Oeste 6 Oeste 0 -- -- 75
2021-02-27 09:00:00 10.9 3 Noroeste 6 Noroeste 0 -- -- 75
2021-02-27 08:00:00 10.4 0 Calma 5 Noroeste 0 -- -- 75
2021-02-27 07:00:00 10.7 0 Calma 13 Noroeste 0 -- -- 73
2021-02-27 06:00:00 11 8 Norte 12 Norte 0 -- -- 73
2021-02-27 05:00:00 11.1 3 Noroeste 6 Nordeste 0 -- -- 78
2021-02-27 04:00:00 11.5 3 Norte 12 Norte 0 -- -- 78
2021-02-27 03:00:00 12.4 7 Norte 15 Nordeste 0 -- -- 74
2021-02-27 02:00:00 12.9 8 Norte 23 Nordeste 0 -- -- 71
2021-02-27 01:00:00 13.2 15 Nordeste 28 Nordeste 0 -- -- 72
2021-02-27 00:00:00 13.2 17 Nordeste 28 Este 0 -- -- 72
2021-02-26 23:00:00 13.3 18 Este 28 Este 0 -- -- 74
2021-02-26 22:00:00 13.5 15 Este 32 Este 0 -- -- 73
2021-02-26 21:00:00 13.6 18 Este 36 Este 0 -- -- 71
2021-02-26 20:00:00 13.7 21 Nordeste 37 Nordeste 0 -- -- 71
2021-02-26 19:00:00 13.9 18 Este 34 Nordeste 0 -- -- 69
2021-02-26 18:00:00 14.3 16 Este 33 Este 0 -- -- 70
2021-02-26 17:00:00 14.6 18 Nordeste 32 Nordeste 0 -- -- 71
2021-02-26 16:00:00 15.1 17 Este 37 Nordeste 0 -- -- 66
2021-02-26 15:00:00 15.8 19 Nordeste 37 Este 0 -- -- 67
2021-02-26 14:00:00 15.9 21 Este 38 Este 0 -- -- 68
2021-02-26 13:00:00 16.2 20 Nordeste 36 Nordeste 0 -- -- 69
2021-02-26 12:00:00 15.5 20 Nordeste 36 Nordeste 0 -- -- 63
2021-02-26 11:00:00 15 22 Nordeste 41 Nordeste 0 -- -- 65
2021-02-26 10:00:00 14.6 19 Nordeste 38 Nordeste 0 -- -- 69
2021-02-26 09:00:00 14.1 20 Nordeste 34 Nordeste 0 -- -- 75
2021-02-26 08:00:00 13.6 17 Nordeste 30 Nordeste 0 -- -- 73
2021-02-26 07:00:00 13.6 17 Nordeste 33 Nordeste 0 -- -- 72
2021-02-26 06:00:00 12.9 12 Nordeste 27 Nordeste 0 -- -- 80
2021-02-26 05:00:00 12.5 4 Norte 13 Norte 0 -- -- 79
2021-02-26 04:00:00 12.9 5 Norte 13 Norte 0 -- -- 78
2021-02-26 03:00:00 13.7 9 Norte 26 Nordeste 0 -- -- 79
2021-02-26 02:00:00 13.9 16 Nordeste 27 Nordeste 0 -- -- 78
2021-02-26 01:00:00 14 13 Nordeste 25 Nordeste 0 -- -- 79
2021-02-26 00:00:00 14 14 Nordeste 30 Este 0 -- -- 76
2021-02-25 23:00:00 14.1 14 Nordeste 30 Nordeste 0 -- -- 75
2021-02-25 22:00:00 14.1 15 Nordeste 29 Nordeste 0 -- -- 77
2021-02-25 21:00:00 14.1 15 Nordeste 29 Nordeste 0 -- -- 79
2021-02-25 20:00:00 14 11 Nordeste 27 Nordeste 0 -- -- 80
2021-02-25 19:00:00 14 13 Nordeste 23 Nordeste 0 -- -- 81
2021-02-25 18:00:00 14.6 16 Nordeste 27 Nordeste 0 -- -- 78
2021-02-25 17:00:00 15.3 16 Nordeste 30 Nordeste 0 -- -- 76
2021-02-25 16:00:00 15.4 18 Nordeste 28 Este 0 -- -- 76
2021-02-25 15:00:00 15.7 16 Este 30 Este 0 -- -- 73
2021-02-25 14:00:00 15.6 17 Nordeste 28 Nordeste 0 -- -- 76
2021-02-25 13:00:00 15.8 17 Nordeste 30 Este 0 -- -- 73
2021-02-25 12:00:00 15.8 18 Nordeste 29 Nordeste 0 -- -- 77
2021-02-25 11:00:00 15 11 Nordeste 22 Nordeste 0 -- -- 79
2021-02-25 10:00:00 13 3 Norte 10 Norte 0 -- -- 86
2021-02-25 09:00:00 11.4 3 Oeste 6 Noroeste 0 -- -- 86
2021-02-25 08:00:00 10 3 Oeste 4 Oeste 0 -- -- 87
2021-02-25 07:00:00 10.4 0 Calma 4 Oeste 0 -- -- 86
2021-02-25 06:00:00 9.7 0 Calma 8 Sudoeste 0 -- -- 91
2021-02-25 05:00:00 9.5 5 Oeste 8 Sudoeste 0 -- -- 93
2021-02-25 04:00:00 9.6 0 Calma 8 Oeste 0 -- -- 91
2021-02-25 03:00:00 10.7 4 Oeste 9 Oeste 0 -- -- 93
2021-02-25 02:00:00 10.3 7 Sudoeste 10 Sudoeste 0 -- -- 94
2021-02-25 01:00:00 9.9 2 Oeste 5 Oeste 0 -- -- 93
2021-02-25 00:00:00 10.4 3 Oeste 6 Oeste 0 -- -- 91
2021-02-24 23:00:00 11.3 3 Noroeste 9 Nordeste 0 -- -- 89
2021-02-24 22:00:00 11.7 2 Nordeste 9 Nordeste 0 -- -- 89
2021-02-24 21:00:00 12.4 5 Nordeste 10 Nordeste 0 -- -- 87
2021-02-24 20:00:00 13.2 7 Nordeste 15 Nordeste 0 -- -- 84
2021-02-24 19:00:00 14 9 Nordeste 28 Este 0 -- -- 81
2021-02-24 18:00:00 15 15 Este 29 Este 0 -- -- 76
2021-02-24 17:00:00 15.8 15 Nordeste 31 Este 0 -- -- 72
2021-02-24 16:00:00 16.5 14 Este 29 Este 0 -- -- 66
2021-02-24 15:00:00 16.6 18 Este 31 Nordeste 0 -- -- 67
2021-02-24 14:00:00 16.8 18 Nordeste 30 Este 0 -- -- 67
2021-02-24 13:00:00 16.9 15 Este 34 Este 0 -- -- 67
2021-02-24 12:00:00 16.2 22 Nordeste 33 Nordeste 0 -- -- 73
2021-02-24 11:00:00 17.1 17 Nordeste 27 Este 0 -- -- 67
2021-02-24 10:00:00 14.5 6 Noroeste 10 Noroeste 0 -- -- 69
2021-02-24 09:00:00 12.6 3 Noroeste 6 Oeste 0 -- -- 80
2021-02-24 08:00:00 12 4 Oeste 10 Sudoeste 0 -- -- 83
2021-02-24 07:00:00 11.9 5 Oeste 12 Oeste 0 -- -- 84
2021-02-24 06:00:00 11.7 6 Oeste 10 Sudoeste 0 -- -- 87
2021-02-24 05:00:00 11.5 0 Calma 5 Oeste 0 -- -- 87
2021-02-24 04:00:00 11.5 2 Oeste 6 Oeste 0 -- -- 87
2021-02-24 03:00:00 10.9 4 Este 8 Nordeste 0 -- -- 91
2021-02-24 02:00:00 10 3 Noroeste 8 Oeste 0 -- -- 91
2021-02-24 01:00:00 10.6 4 Oeste 12 Oeste 0 -- -- 88
2021-02-24 00:00:00 11.1 5 Oeste 10 Oeste 0 -- -- 87
2021-02-23 23:00:00 12.1 0 Calma 8 Nordeste 0 -- -- 83
2021-02-23 22:00:00 13.3 6 Nordeste 14 Nordeste 0 -- -- 80
2021-02-23 21:00:00 13.5 3 Norte 10 Nordeste 0 -- -- 79
2021-02-23 20:00:00 13.8 8 Nordeste 26 Este 0 -- -- 78
2021-02-23 19:00:00 14 13 Este 24 Este 0 -- -- 79
2021-02-23 18:00:00 14.9 14 Este 27 Este 0 -- -- 76
2021-02-23 17:00:00 16.1 12 Este 27 Este 0 -- -- 69
2021-02-23 16:00:00 17 10 Nordeste 30 Nordeste 0 -- -- 61
2021-02-23 15:00:00 16.1 20 Este 32 Este 0 -- -- 64
2021-02-23 14:00:00 16.5 17 Nordeste 33 Este 0 -- -- 62
2021-02-23 13:00:00 16.8 21 Nordeste 36 Este 0 -- -- 62
2021-02-23 12:00:00 16.4 22 Nordeste 37 Nordeste 0 -- -- 68
2021-02-23 11:00:00 16 20 Nordeste 30 Nordeste 0 -- -- 69
2021-02-23 10:00:00 12.7 3 Oeste 8 Sudoeste 0 -- -- 65
2021-02-23 09:00:00 9.9 3 Oeste 9 Sudoeste 0 -- -- 73
2021-02-23 08:00:00 8.6 5 Oeste 9 Oeste 0 -- -- 76
2021-02-23 07:00:00 8.8 3 Oeste 8 Oeste 0 -- -- 73
2021-02-23 06:00:00 10.2 4 Oeste 10 Oeste 0 -- -- 69
2021-02-23 05:00:00 10.8 5 Sudoeste 10 Sudoeste 0 -- -- 66
2021-02-23 04:00:00 9.8 7 Sudoeste 10 Sudoeste 0 -- -- 68
2021-02-23 03:00:00 9.6 6 Sudoeste 9 Sudoeste 0 -- -- 67
2021-02-23 02:00:00 10.4 6 Oeste 10 Sudoeste 0 -- -- 64
2021-02-23 01:00:00 11 5 Sudoeste 13 Oeste 0 -- -- 61
2021-02-23 00:00:00 11.6 8 Sudoeste 15 Oeste 0 -- -- 58
2021-02-22 23:00:00 11 5 Sudoeste 15 Oeste 0 -- -- 59
2021-02-22 22:00:00 12.6 10 Oeste 21 Oeste 0 -- -- 54
2021-02-22 21:00:00 13.7 12 Oeste 29 Oeste 0 -- -- 50
2021-02-22 20:00:00 14.1 19 Oeste 27 Oeste 0 -- -- 49
2021-02-22 19:00:00 14.5 15 Oeste 23 Oeste 0 -- -- 47
2021-02-22 18:00:00 16.1 18 Noroeste 36 Noroeste 0 -- -- 43
2021-02-22 17:00:00 17.2 28 Noroeste 41 Noroeste 0 -- -- 39
2021-02-22 16:00:00 17.9 17 Oeste 36 Oeste 0 -- -- 37
2021-02-22 15:00:00 17.5 16 Oeste 39 Oeste 0 -- -- 38
2021-02-22 14:00:00 17.3 22 Oeste 35 Oeste 0 -- -- 39
2021-02-22 13:00:00 16.8 19 Oeste 40 Oeste 0 -- -- 38
2021-02-22 12:00:00 15.7 22 Oeste 44 Oeste 0 -- -- 39
2021-02-22 11:00:00 15.4 28 Oeste 42 Oeste 0 -- -- 40
2021-02-22 10:00:00 14.5 17 Oeste 36 Sudoeste 0 -- -- 48
2021-02-22 09:00:00 12 9 Sudoeste 19 Sudoeste 0 -- -- 55
2021-02-22 08:00:00 11.4 12 Sudoeste 19 Sudoeste 0 -- -- 59
2021-02-22 07:00:00 11.9 9 Sudoeste 18 Sudoeste 0 -- -- 58
2021-02-22 06:00:00 12.2 9 Sudoeste 15 Sudoeste 0 -- -- 57
2021-02-22 05:00:00 12.2 6 Sudoeste 15 Oeste 0 -- -- 58
2021-02-22 04:00:00 12.7 8 Oeste 18 Sudoeste 0 -- -- 60
2021-02-22 03:00:00 12.9 8 Sudoeste 20 Sudoeste 0 -- -- 65
2021-02-22 02:00:00 13.2 12 Sudoeste 22 Sudoeste 0 -- -- 69
2021-02-22 01:00:00 13.1 10 Sur 20 Sudoeste 0 -- -- 72
2021-02-22 00:00:00 13.1 7 Sudoeste 24 Sur 0 -- -- 78
2021-02-21 23:00:00 14.1 12 Sur 28 Sur 0 -- -- 73
2021-02-21 22:00:00 14.7 14 Sur 27 Sur 0 -- -- 69
2021-02-21 21:00:00 15.5 12 Sur 21 Sur 0 -- -- 72
2021-02-21 20:00:00 15.6 9 Sur 20 Sur 0 -- -- 74
2021-02-21 19:00:00 15.8 8 Sur 26 Este 0 -- -- 80
2021-02-21 18:00:00 16.7 11 Este 28 Este 0 -- -- 69
2021-02-21 17:00:00 17.8 14 Nordeste 28 Nordeste 0 -- -- 63
2021-02-21 16:00:00 17.1 14 Nordeste 30 Este 0 -- -- 67
2021-02-21 15:00:00 17.6 18 Nordeste 29 Este 0 -- -- 64
2021-02-21 14:00:00 17.5 13 Nordeste 22 Nordeste 0 -- -- 64
2021-02-21 13:00:00 16.4 6 Oeste 12 Oeste 0 -- -- 66
2021-02-21 12:00:00 15.2 6 Oeste 12 Oeste 0 -- -- 69
2021-02-21 11:00:00 12.7 4 Oeste 9 Sudoeste 0 -- -- 82
2021-02-21 10:00:00 11.4 3 Norte 10 Oeste 0 -- -- 86
2021-02-21 09:00:00 10.7 6 Sudoeste 14 Oeste 0 -- -- 88
2021-02-21 08:00:00 9.9 5 Oeste 9 Sudoeste 0 -- -- 91
2021-02-21 07:00:00 9.7 6 Sudoeste 11 Sudoeste 0 -- -- 93
2021-02-21 06:00:00 9.2 0 Calma 7 Oeste 0 -- -- 92
2021-02-21 05:00:00 9.5 2 Norte 9 Oeste 0 -- -- 91
2021-02-21 04:00:00 9.7 4 Oeste 8 Oeste 0 -- -- 91
2021-02-21 03:00:00 10.9 4 Oeste 14 Sudoeste 0 -- -- 87
2021-02-21 02:00:00 11.2 8 Oeste 11 Oeste 0 -- -- 87
2021-02-21 01:00:00 11.9 4 Noroeste 11 Nordeste 0 -- -- 85
2021-02-21 00:00:00 13.4 8 Nordeste 35 Nordeste 0 -- -- 82
2021-02-20 23:00:00 13.6 21 Nordeste 31 Nordeste 0 -- -- 84
2021-02-20 22:00:00 13.7 20 Nordeste 33 Nordeste 0 -- -- 84
2021-02-20 21:00:00 13.8 15 Nordeste 29 Nordeste 0 -- -- 85
2021-02-20 20:00:00 13.8 17 Nordeste 27 Nordeste 0 -- -- 85
2021-02-20 19:00:00 14 14 Nordeste 28 Nordeste 0 -- -- 85
2021-02-20 18:00:00 14.1 15 Nordeste 33 Nordeste 0 -- -- 82
2021-02-20 17:00:00 14.7 17 Nordeste 28 Este 0 -- -- 80
2021-02-20 16:00:00 15.2 13 Nordeste 27 Este 0 -- -- 73
2021-02-20 15:00:00 15.3 14 Este 22 Nordeste 0 -- -- 69
2021-02-20 14:00:00 14.7 11 Nordeste 21 Nordeste 0 -- -- 72
2021-02-20 13:00:00 14.7 12 Nordeste 19 Este 0 -- -- 74
2021-02-20 12:00:00 14.4 8 Nordeste 17 Nordeste 0 -- -- 75
2021-02-20 11:00:00 13.1 8 Norte 14 Noroeste 0 -- -- 81
2021-02-20 10:00:00 12.1 5 Norte 9 Norte 0 -- -- 86
2021-02-20 09:00:00 11.3 5 Noroeste 9 Noroeste 0 -- -- 89
2021-02-20 08:00:00 10.8 0 Calma 12 Norte 0 -- -- 90
2021-02-20 07:00:00 11.3 7 Noroeste 13 Noroeste 0 -- -- 90
2021-02-20 06:00:00 11.5 2 Norte 5 Oeste 0 -- -- 92
2021-02-20 05:00:00 11.4 3 Oeste 6 Noroeste 0 -- -- 93
2021-02-20 04:00:00 11.5 4 Oeste 8 Oeste 0 -- -- 94
2021-02-20 03:00:00 11.8 2 Norte 6 Este 0 -- -- 94
2021-02-20 02:00:00 11.5 0 Calma 6 Este 0 -- -- 94
2021-02-20 01:00:00 11 2 Este 6 Nordeste 0 -- -- 95
2021-02-20 00:00:00 9.8 0 Calma 6 Oeste 0 -- -- 95
2021-02-19 23:00:00 10.9 2 Este 5 Sudeste 0 -- -- 94
2021-02-19 22:00:00 11.2 4 Sudeste 6 Sudeste 0 -- -- 93
2021-02-19 21:00:00 11.6 3 Este 4 Este 0 -- -- 91
2021-02-19 20:00:00 12.6 0 Calma 12 Sur 0 -- -- 86
2021-02-19 19:00:00 14 9 Sudeste 13 Sudeste 0 -- -- 83
2021-02-19 18:00:00 16 4 Sudeste 14 Este 0 -- -- 72
2021-02-19 17:00:00 16.9 6 Sudeste 21 Sudeste 0 -- -- 70
2021-02-19 16:00:00 17.1 14 Sudeste 21 Este 0 -- -- 69
2021-02-19 15:00:00 18 9 Sudeste 18 Sudeste 0 -- -- 65
2021-02-19 14:00:00 17.7 9 Sudeste 15 Sudeste 0 -- -- 66
2021-02-19 13:00:00 16.4 4 Este 10 Sudeste 0 -- -- 71
2021-02-19 12:00:00 13.8 2 Noroeste 9 Oeste 0 -- -- 83
2021-02-19 11:00:00 12.3 6 Oeste 9 Oeste 0 -- -- 92
2021-02-19 10:00:00 10.8 4 Oeste 9 Oeste 0 -- -- 96
2021-02-19 09:00:00 9.9 6 Oeste 9 Oeste 0 -- -- 96
2021-02-19 08:00:00 9.4 5 Sudoeste 9 Oeste 0 -- -- 96
2021-02-19 07:00:00 9.1 5 Sudoeste 8 Sudoeste 0 -- -- 96
2021-02-19 06:00:00 8.4 5 Sudoeste 9 Sudoeste 0 -- -- 96
2021-02-19 05:00:00 7.6 3 Sudoeste 5 Sudoeste 0 -- -- 95
2021-02-19 04:00:00 8.2 0 Calma 5 Este 0 -- -- 95
2021-02-19 03:00:00 9.2 3 Este 6 Sudeste 0 -- -- 95
2021-02-19 02:00:00 9.3 3 Sudeste 10 Oeste 0 -- -- 95
2021-02-19 01:00:00 9.3 0 Calma 6 Nordeste 0 -- -- 94
2021-02-19 00:00:00 10.2 4 Sudoeste 9 Oeste 0 -- -- 94
2021-02-18 23:00:00 10.3 5 Sudoeste 8 Sudoeste 0 -- -- 93
2021-02-18 22:00:00 10.5 0 Calma 4 Sudoeste 0 -- -- 90
2021-02-18 21:00:00 11.7 4 Sur 7 Sudeste 0 -- -- 90
2021-02-18 20:00:00 12.4 0 Calma 12 Este 0 -- -- 86
2021-02-18 19:00:00 13.3 6 Este 13 Este 0 -- -- 83
2021-02-18 18:00:00 14.7 9 Este 19 Este 0 -- -- 77
2021-02-18 17:00:00 15.8 10 Este 18 Este 0 -- -- 72
2021-02-18 16:00:00 16.8 8 Sudeste 17 Este 0 -- -- 68
2021-02-18 15:00:00 17.2 9 Este 18 Este 0 -- -- 66
2021-02-18 14:00:00 16.9 7 Este 14 Nordeste 0 -- -- 65
2021-02-18 13:00:00 15.7 7 Nordeste 15 Nordeste 0 -- -- 70
2021-02-18 12:00:00 15 5 Norte 13 Nordeste 0 -- -- 73
2021-02-18 11:00:00 13.3 4 Noroeste 13 Oeste 0 -- -- 76
2021-02-18 10:00:00 10.4 9 Oeste 15 Sudoeste 0 -- -- 93
2021-02-18 09:00:00 6.9 0 Calma 7 Oeste 0 -- -- 95
2021-02-18 08:00:00 7.4 3 Oeste 9 Noroeste 0 -- -- 94
2021-02-18 07:00:00 8.3 4 Oeste 12 Oeste 0 -- -- 93
2021-02-18 06:00:00 8.8 5 Oeste 10 Oeste 0 -- -- 93
2021-02-18 05:00:00 9.7 6 Oeste 11 Oeste 0 -- -- 91
2021-02-18 04:00:00 10.7 5 Noroeste 13 Noroeste 0 -- -- 91
2021-02-18 03:00:00 11.3 4 Noroeste 10 Noroeste 0 -- -- 91
2021-02-18 02:00:00 11.9 5 Noroeste 8 Noroeste 0 -- -- 89
2021-02-18 01:00:00 12.4 4 Norte 9 Nordeste 0 -- -- 90
2021-02-18 00:00:00 12.2 3 Este 10 Este 0 -- -- 93
2021-02-17 23:00:00 11.6 0 Calma 6 Nordeste 0 -- -- 93
2021-02-17 22:00:00 11.8 3 Este 5 Nordeste 0 -- -- 93
2021-02-17 21:00:00 12.4 2 Nordeste 7 Nordeste 0 -- -- 91
2021-02-17 20:00:00 12.4 3 Este 10 Sudeste 0 -- -- 88
2021-02-17 19:00:00 14 6 Este 13 Sudeste 0 -- -- 84
2021-02-17 18:00:00 16.2 5 Este 12 Este 0 -- -- 72
2021-02-17 17:00:00 17.2 7 Este 14 Este 0 -- -- 67
2021-02-17 16:00:00 18.1 8 Este 15 Sudeste 0 -- -- 62
2021-02-17 15:00:00 18 8 Este 15 Este 0 -- -- 59
2021-02-17 14:00:00 17.8 8 Este 15 Nordeste 0 -- -- 56
2021-02-17 13:00:00 17.2 9 Este 18 Nordeste 0 -- -- 55
2021-02-17 12:00:00 17.1 5 Este 10 Oeste 0 -- -- 53
2021-02-17 11:00:00 14.2 7 Oeste 11 Oeste 0 -- -- 62
2021-02-17 10:00:00 10.8 5 Oeste 10 Oeste 0 -- -- 75
2021-02-17 09:00:00 8.4 3 Oeste 9 Sudoeste 0 -- -- 84
2021-02-17 08:00:00 6.7 6 Sudoeste 12 Oeste 0 -- -- 92
2021-02-17 07:00:00 6.8 3 Oeste 4 Oeste 0 -- -- 92
2021-02-17 06:00:00 6.9 0 Calma 5 Sudeste 0 -- -- 92
2021-02-17 05:00:00 7 3 Sudoeste 4 Sur 0 -- -- 92
2021-02-17 04:00:00 7.4 0 Calma 4 Sudeste 0 -- -- 91
2021-02-17 03:00:00 7.9 0 Calma 8 Sudoeste 0 -- -- 90
2021-02-17 02:00:00 8.3 5 Sudoeste 8 Oeste 0 -- -- 89
2021-02-17 01:00:00 9.2 0 Calma 7 Sudoeste 0 -- -- 88
2021-02-17 00:00:00 9.7 6 Sudoeste 8 Sudoeste 0 -- -- 89
2021-02-16 23:00:00 9.6 5 Sudoeste 7 Sudoeste 0 -- -- 89
2021-02-16 22:00:00 10.2 3 Sudoeste 4 Oeste 0 -- -- 87
2021-02-16 21:00:00 11.3 3 Sudoeste 17 Sudeste 0 -- -- 81
2021-02-16 20:00:00 13.1 12 Sudeste 22 Sudeste 0 -- -- 76
2021-02-16 19:00:00 13.4 13 Sudeste 26 Sudeste 0 -- -- 77
2021-02-16 18:00:00 14.5 16 Sudeste 27 Sudeste 0 -- -- 70
2021-02-16 17:00:00 15.7 15 Sudeste 28 Sudeste 0 -- -- 64
2021-02-16 16:00:00 16.8 14 Sudeste 23 Sudeste 0 -- -- 58
2021-02-16 15:00:00 16.9 13 Sudeste 23 Sudeste 0 -- -- 58
2021-02-16 14:00:00 16.7 4 Oeste 15 Sudoeste 0 -- -- 56
2021-02-16 13:00:00 15 12 Oeste 21 Oeste 0 -- -- 61
2021-02-16 12:00:00 14.1 10 Oeste 18 Noroeste 0 -- -- 65
2021-02-16 11:00:00 12.7 8 Oeste 12 Oeste 0 -- -- 75
2021-02-16 10:00:00 10.8 4 Oeste 8 Oeste 0 -- -- 87
2021-02-16 09:00:00 8.2 3 Oeste 8 Sudoeste 0 -- -- 92
2021-02-16 08:00:00 7.6 4 Sudoeste 9 Sudoeste 0 -- -- 93
2021-02-16 07:00:00 7.5 6 Sudoeste 10 Oeste 0 -- -- 92
2021-02-16 06:00:00 7.8 6 Sudoeste 10 Sudoeste 0 -- -- 91
2021-02-16 05:00:00 7.5 4 Sudoeste 10 Oeste 0 -- -- 92
2021-02-16 04:00:00 7.5 4 Oeste 6 Oeste 0 -- -- 93
2021-02-16 03:00:00 7.9 3 Oeste 7 Sudoeste 0 -- -- 91
2021-02-16 02:00:00 8 6 Sudoeste 8 Sudoeste 0 -- -- 90
2021-02-16 01:00:00 8.4 6 Sudoeste 8 Sudoeste 0 -- -- 89
2021-02-16 00:00:00 8.7 0 Calma 2 Oeste 0 -- -- 88
2021-02-15 23:00:00 9.4 0 Calma 4 Sudeste 0 -- -- 86
2021-02-15 22:00:00 10 0 Calma 5 Este 0 -- -- 83
2021-02-15 21:00:00 10.9 2 Este 8 Este 0 -- -- 79
2021-02-15 20:00:00 11.6 4 Este 10 Este 0 -- -- 75
2021-02-15 19:00:00 12.8 6 Este 17 Sudeste 0 -- -- 71
2021-02-15 18:00:00 13.9 10 Este 22 Este 0 -- -- 66
2021-02-15 17:00:00 15.1 10 Este 24 Este 0 -- -- 62
2021-02-15 16:00:00 15.8 9 Sudeste 24 Este 0 -- -- 59
2021-02-15 15:00:00 16.5 12 Sudeste 26 Sudeste 0 -- -- 58
2021-02-15 14:00:00 16.6 13 Sudeste 25 Sudeste 0 -- -- 57
2021-02-15 13:00:00 16.6 10 Sudeste 24 Sudeste 0 -- -- 57
2021-02-15 12:00:00 16.2 10 Sudeste 21 Este 0 -- -- 62
2021-02-15 11:00:00 15.9 9 Sudeste 21 Sudeste 0 -- -- 62
2021-02-15 10:00:00 14.2 9 Sudeste 15 Sudeste 0 -- -- 67
2021-02-15 09:00:00 12.6 6 Sudeste 11 Sudeste 0 -- -- 82
2021-02-15 08:00:00 11.8 0 Calma 2 Oeste 0 -- -- 89
2021-02-15 07:00:00 12 0 Calma 4 Norte 0 -- -- 87
2021-02-15 06:00:00 12.7 0 Calma 7 Sudeste 0 -- -- 81
2021-02-15 05:00:00 13 4 Este 9 Sudeste 0 -- -- 79
2021-02-15 04:00:00 13.2 6 Este 15 Este 0 -- -- 80
2021-02-15 03:00:00 13.3 3 Este 9 Sudeste 0 -- -- 77
2021-02-15 02:00:00 13.4 5 Este 9 Este 0 -- -- 78
2021-02-15 01:00:00 13.6 4 Sudeste 14 Este 0 -- -- 79
2021-02-15 00:00:00 13.7 5 Este 12 Este 0 -- -- 79
2021-02-14 23:00:00 13.7 7 Este 16 Este 0 -- -- 79
2021-02-14 22:00:00 13.8 9 Este 22 Sudeste 0 -- -- 80
2021-02-14 21:00:00 14 13 Este 22 Este 0 -- -- 82
2021-02-14 20:00:00 14.1 10 Este 22 Este 0 -- -- 83
2021-02-14 19:00:00 14.1 11 Este 23 Nordeste 0 -- -- 83
2021-02-14 18:00:00 14.8 15 Nordeste 25 Nordeste 0 -- -- 79
2021-02-14 17:00:00 15.6 14 Nordeste 30 Nordeste 0 -- -- 77
2021-02-14 16:00:00 16 17 Nordeste 31 Nordeste 0 -- -- 73
2021-02-14 15:00:00 16.4 18 Este 39 Nordeste 0 -- -- 71
2021-02-14 14:00:00 16.5 21 Nordeste 36 Nordeste 0 -- -- 67
2021-02-14 13:00:00 16.9 16 Nordeste 29 Nordeste 0 -- -- 66
2021-02-14 12:00:00 16.9 11 Este 23 Este 0 -- -- 66
2021-02-14 11:00:00 15.1 2 Nordeste 8 Sudoeste 0 -- -- 76
2021-02-14 10:00:00 11.3 5 Oeste 8 Sudoeste 0 -- -- 75
2021-02-14 09:00:00 9.6 2 Norte 8 Norte 0 -- -- 80
2021-02-14 08:00:00 9 4 Sudoeste 10 Sudoeste 0 -- -- 84
2021-02-14 07:00:00 9.3 3 Oeste 10 Sudoeste 0 -- -- 83
2021-02-14 06:00:00 10 2 Noroeste 8 Noroeste 0 -- -- 80
2021-02-14 05:00:00 9.8 3 Noroeste 8 Norte 0 -- -- 82
2021-02-14 04:00:00 9.6 5 Oeste 8 Oeste 0 -- -- 90
2021-02-14 03:00:00 9.7 3 Oeste 6 Sudoeste 0 -- -- 85
2021-02-14 02:00:00 10.8 6 Sudoeste 8 Sudoeste 0 -- -- 85
2021-02-14 01:00:00 11 4 Sudoeste 8 Sudoeste 0 -- -- 84
2021-02-14 00:00:00 11.4 3 Oeste 8 Oeste 0 -- -- 80
2021-02-13 23:00:00 12.3 4 Norte 10 Norte 0 -- -- 79
2021-02-13 22:00:00 13 6 Noroeste 13 Norte 0 -- -- 81
2021-02-13 21:00:00 13.7 5 Norte 16 Nordeste 0 -- -- 82
2021-02-13 20:00:00 14.4 9 Nordeste 19 Norte 0 -- -- 81
2021-02-13 19:00:00 16.6 3 Noroeste 9 Oeste 0 -- -- 64
2021-02-13 18:00:00 20.4 4 Sur 17 Sudeste 0 -- -- 38
2021-02-13 17:00:00 22.8 12 Oeste 19 Sudoeste 0 -- -- 29
2021-02-13 16:00:00 23 10 Oeste 23 Oeste 0 -- -- 30
2021-02-13 15:00:00 22.5 9 Oeste 24 Oeste 0 -- -- 32
2021-02-13 14:00:00 21.6 18 Oeste 31 Oeste 0 -- -- 33
2021-02-13 13:00:00 20.7 21 Oeste 31 Noroeste 0 -- -- 35
2021-02-13 08:00:00 -- -- -- -- -- -- -- -- --
2021-02-13 07:00:00 16.3 17 Oeste 37 Oeste 0 -- -- 45
2021-02-13 06:00:00 16.1 22 Oeste 33 Oeste 0 -- -- 46
2021-02-13 05:00:00 15.4 11 Sudoeste 39 Oeste 0 -- -- 48
2021-02-13 04:00:00 16.1 25 Oeste 40 Oeste 0 -- -- 47
2021-02-13 03:00:00 15.4 13 Oeste 41 Oeste 0 -- -- 49
2021-02-13 02:00:00 16.5 28 Oeste 41 Oeste 0 -- -- 48
2021-02-13 01:00:00 16.6 23 Oeste 39 Oeste 0 -- -- 48
2021-02-13 00:00:00 15.9 9 Oeste 25 Oeste 0 -- -- 50
2021-02-12 23:00:00 17.5 18 Oeste 34 Oeste 0 -- -- 44
2021-02-12 22:00:00 17.9 21 Oeste 43 Oeste 0 -- -- 42
2021-02-12 21:00:00 18.6 30 Oeste 42 Oeste 0 -- -- 39
2021-02-12 20:00:00 18.9 21 Oeste 48 Noroeste 0 -- -- 38
2021-02-12 19:00:00 19.4 15 Oeste 41 Noroeste 0 -- -- 37
2021-02-12 18:00:00 21.1 29 Oeste 46 Oeste 0 -- -- 32
2021-02-12 17:00:00 22.3 28 Noroeste 52 Noroeste 0 -- -- 30
2021-02-12 16:00:00 23.4 27 Noroeste 57 Oeste 0 -- -- 25
2021-02-12 15:00:00 23.6 40 Oeste 60 Oeste 0 -- -- 26
2021-02-12 14:00:00 23.1 27 Oeste 51 Oeste 0 -- -- 35
2021-02-12 13:00:00 22.7 22 Oeste 39 Oeste 0 -- -- 41
2021-02-12 12:00:00 21.4 15 Oeste 26 Oeste 0 -- -- 48
2021-02-12 11:00:00 19 8 Sudoeste 15 Sudoeste 0 -- -- 59
2021-02-12 10:00:00 15.8 3 Oeste 9 Sudoeste 0 -- -- 74
2021-02-12 09:00:00 14 5 Sudoeste 8 Sudoeste 0 -- -- 79
2021-02-12 08:00:00 14.8 6 Oeste 11 Sudoeste 0 -- -- 74
2021-02-12 07:00:00 14.2 7 Oeste 13 Oeste 0 -- -- 76
2021-02-12 06:00:00 13.3 4 Sudoeste 6 Oeste 0 -- -- 80
2021-02-12 05:00:00 13.9 0 Calma 6 Sudoeste 0 -- -- 77
2021-02-12 04:00:00 13.8 2 Sudoeste 4 Sudoeste 0 -- -- 80
2021-02-12 03:00:00 14.4 3 Nordeste 6 Sudoeste 0 -- -- 77
2021-02-12 02:00:00 15.2 0 Calma 6 Sur 0 -- -- 74
2021-02-12 01:00:00 15.4 5 Sudeste 9 Sudeste 0 -- -- 74
2021-02-12 00:00:00 16.3 5 Sudeste 7 Sudeste 0 -- -- 68
2021-02-11 23:00:00 15.3 3 Sudeste 6 Sudeste 0 -- -- 72
2021-02-11 22:00:00 15.2 3 Sudeste 8 Sur 0 -- -- 73
2021-02-11 21:00:00 16.5 5 Sur 10 Sur 0 -- -- 67
2021-02-11 20:00:00 18.7 9 Sur 21 Sur 0 -- -- 60
2021-02-11 19:00:00 18.5 13 Sur 24 Sudeste 0 -- -- 66
2021-02-11 18:00:00 19.7 14 Sur 25 Sudeste 0 -- -- 56
2021-02-11 17:00:00 21.2 16 Sur 31 Sur 0 -- -- 46
2021-02-11 16:00:00 22.7 15 Sudeste 28 Sur 0 -- -- 43
2021-02-11 15:00:00 22.8 13 Sudeste 24 Sudeste 0 -- -- 42
2021-02-11 14:00:00 22.5 13 Sudeste 22 Sudeste 0 -- -- 39
2021-02-11 13:00:00 22.1 6 Sudoeste 17 Oeste 0 -- -- 47
2021-02-11 12:00:00 21.1 7 Sur 15 Sur 0 -- -- 47
2021-02-11 11:00:00 17.5 7 Oeste 11 Oeste 0 -- -- 48
2021-02-11 10:00:00 13.6 5 Oeste 8 Oeste 0 -- -- 56
2021-02-11 09:00:00 11 3 Oeste 7 Oeste 0 -- -- 66
2021-02-11 08:00:00 10.6 3 Sudoeste 7 Este 0 -- -- 65
2021-02-11 07:00:00 10.7 4 Sudeste 10 Oeste 0 -- -- 64
2021-02-11 06:00:00 12 0 Calma 18 Sudoeste 0 -- -- 59
2021-02-11 05:00:00 13.1 5 Sudoeste 15 Sudoeste 0 -- -- 55
2021-02-11 04:00:00 12.4 7 Sudoeste 10 Sudoeste 0 -- -- 56
2021-02-11 03:00:00 11.7 3 Oeste 8 Sudoeste 0 -- -- 58
2021-02-11 02:00:00 13 3 Sudoeste 9 Sudoeste 0 -- -- 54
2021-02-11 01:00:00 14.5 6 Sudoeste 13 Sudoeste 0 -- -- 48
2021-02-11 00:00:00 14.1 2 Sur 10 Sur 0 -- -- 48
2021-02-10 23:00:00 14.1 6 Sur 10 Sur 0 -- -- 48
2021-02-10 22:00:00 14.4 3 Este 16 Oeste 0 -- -- 47
2021-02-10 21:00:00 16.7 10 Oeste 18 Oeste 0 -- -- 41
2021-02-10 20:00:00 17.1 5 Sur 15 Sudoeste 0 -- -- 39
2021-02-10 19:00:00 18 3 Sudoeste 17 Noroeste 0 -- -- 36
2021-02-10 18:00:00 20.2 17 Noroeste 27 Noroeste 0 -- -- 30
2021-02-10 17:00:00 22.3 16 Noroeste 45 Noroeste 0 -- -- 30
2021-02-10 16:00:00 22.5 23 Oeste 49 Noroeste 0 -- -- 28
2021-02-10 15:00:00 21.4 21 Oeste 46 Oeste 0 -- -- 35
2021-02-10 14:00:00 19.5 14 Oeste 29 Oeste 0 -- -- 47
2021-02-10 13:00:00 18.7 12 Sudoeste 40 Sudoeste 0 -- -- 49
2021-02-10 12:00:00 18.2 19 Oeste 45 Sudoeste 0 -- -- 50
2021-02-10 11:00:00 17 10 Sur 19 Sudoeste 0 -- -- 51
2021-02-10 10:00:00 13.8 6 Sudoeste 15 Noroeste 0 -- -- 57
2021-02-10 09:00:00 13.1 7 Sudoeste 15 Sudoeste 0 -- -- 57
2021-02-10 08:00:00 14.1 7 Sur 19 Sudeste 0 -- -- 54
2021-02-10 07:00:00 13.3 8 Sur 13 Sur 0 -- -- 54
2021-02-10 06:00:00 13.1 3 Sudoeste 13 Sudeste 0 -- -- 62
2021-02-10 05:00:00 11.7 3 Sur 6 Sudoeste 0 -- -- 71
2021-02-10 04:00:00 13.2 3 Norte 21 Sudoeste 0 -- -- 69
2021-02-10 03:00:00 14.9 10 Sur 20 Sur 0 -- -- 65
2021-02-10 02:00:00 14.2 5 Sur 14 Sur 0 -- -- 64
2021-02-10 01:00:00 15.3 9 Sur 15 Sur 0 -- -- 61
2021-02-10 00:00:00 15.3 10 Sudoeste 22 Sudoeste 0 -- -- 61
2021-02-09 23:00:00 14.3 2 Noroeste 21 Sudoeste 0 -- -- 69
2021-02-09 22:00:00 15.7 13 Sur 23 Sur 0 -- -- 63
2021-02-09 21:00:00 14.4 4 Sur 15 Sudoeste 0 -- -- 67
2021-02-09 20:00:00 15.2 5 Sudoeste 26 Sur 0 -- -- 69
2021-02-09 19:00:00 15.1 12 Sur 21 Sur 0 -- -- 70
2021-02-09 18:00:00 15.4 10 Sur 18 Sur 0 -- -- 62
2021-02-09 17:00:00 15.4 7 Sudeste 11 Sudeste 0 -- -- 58
2021-02-09 16:00:00 15.6 3 Sur 9 Sur 0 -- -- 57
2021-02-09 15:00:00 15.5 5 Sur 18 Sur 0 -- -- 57
2021-02-09 14:00:00 15.4 4 Sudeste 15 Sur 0 -- -- 52
2021-02-09 13:00:00 14.2 3 Oeste 8 Sudoeste 0 -- -- 54
2021-02-09 12:00:00 13 3 Oeste 15 Sudeste 0 -- -- 56
2021-02-09 11:00:00 10.7 3 Sudoeste 9 Oeste 0 -- -- 64
2021-02-09 10:00:00 9.7 5 Oeste 10 Sudoeste 0 -- -- 66
2021-02-09 09:00:00 8.3 3 Oeste 9 Sudeste 0 -- -- 72
2021-02-09 08:00:00 8.8 6 Sudoeste 9 Sudoeste 0 -- -- 69
2021-02-09 07:00:00 9.3 0 Calma 17 Sur 0 -- -- 66
2021-02-09 06:00:00 8.4 9 Sur 16 Sur 0 -- -- 69
2021-02-09 05:00:00 9.4 3 Sudoeste 7 Oeste 0 -- -- 64
2021-02-09 04:00:00 9.8 0 Calma 8 Norte 0 -- -- 63
2021-02-09 03:00:00 12.5 5 Sudoeste 12 Sudoeste 0 -- -- 50
2021-02-09 02:00:00 13.2 8 Sudoeste 18 Sur 0 -- -- 49
2021-02-09 01:00:00 13.7 12 Sur 19 Sur 0 -- -- 49
2021-02-09 00:00:00 13.1 9 Sudoeste 21 Oeste 0 -- -- 51
2021-02-08 23:00:00 13.5 10 Oeste 23 Sudoeste 0 -- -- 48
2021-02-08 22:00:00 14 9 Oeste 23 Sudoeste 0 -- -- 46
2021-02-08 21:00:00 14 6 Sudoeste 16 Sudoeste 0 -- -- 46
2021-02-08 20:00:00 15 8 Sudoeste 33 Oeste 0 -- -- 44
2021-02-08 19:00:00 16.3 14 Oeste 45 Oeste 0 -- -- 42
2021-02-08 18:00:00 18.1 27 Oeste 44 Oeste 0 -- -- 37
2021-02-08 17:00:00 19.5 26 Oeste 41 Oeste 0 -- -- 33
2021-02-08 16:00:00 20 12 Sudoeste 31 Sudoeste 0 -- -- 31
2021-02-08 15:00:00 17.9 15 Oeste 36 Oeste 0 -- -- 36
2021-02-08 14:00:00 17.9 22 Oeste 35 Oeste 0 -- -- 37
2021-02-08 13:00:00 18.1 14 Oeste 22 Oeste 0 -- -- 45
2021-02-08 12:00:00 16.9 12 Oeste 26 Sudoeste 0 -- -- 53
2021-02-08 11:00:00 16 8 Oeste 26 Sudoeste 0 -- -- 56
2021-02-08 10:00:00 13.1 4 Sudeste 9 Sur 0 -- -- 68
2021-02-08 09:00:00 12.9 7 Sudoeste 22 Sur 0 -- -- 61
2021-02-08 08:00:00 12.9 13 Sur 24 Sudoeste 0 -- -- 58
2021-02-08 07:00:00 12 4 Sur 12 Sudoeste 0 -- -- 56
2021-02-08 06:00:00 12 5 Sudoeste 22 Sudoeste 0 -- -- 56
2021-02-08 05:00:00 11.6 4 Sudoeste 15 Sudoeste 0 -- -- 58
2021-02-08 04:00:00 12.6 9 Sur 18 Sur 0 -- -- 54
2021-02-08 03:00:00 13.6 12 Oeste 26 Oeste 0 -- -- 51
2021-02-08 02:00:00 14.3 13 Oeste 27 Oeste 0 -- -- 48
2021-02-08 01:00:00 14.3 8 Sudoeste 18 Sudoeste 0 -- -- 47
2021-02-08 00:00:00 14.4 8 Sudoeste 21 Sudoeste 0 -- -- 46
2021-02-07 23:00:00 14.8 10 Oeste 24 Oeste 0 -- -- 45
2021-02-07 22:00:00 14.8 15 Oeste 34 Oeste 0 -- -- 44
2021-02-07 21:00:00 15.2 24 Oeste 51 Oeste 0 -- -- 42
2021-02-07 20:00:00 15.6 26 Oeste 55 Oeste 0 -- -- 41
2021-02-07 19:00:00 16.2 28 Oeste 46 Oeste 0 -- -- 43
2021-02-07 18:00:00 17.1 12 Oeste 26 Oeste 0 -- -- 44
2021-02-07 17:00:00 17.7 15 Noroeste 36 Oeste 0 -- -- 42
2021-02-07 16:00:00 18.2 21 Noroeste 33 Noroeste 0 -- -- 44
2021-02-07 15:00:00 18.1 19 Noroeste 33 Oeste 0 -- -- 44
2021-02-07 14:00:00 17.9 24 Noroeste 38 Oeste 0 -- -- 45
2021-02-07 13:00:00 17.1 19 Noroeste 33 Oeste 0 -- -- 48
2021-02-07 12:00:00 16.6 19 Oeste 34 Oeste 0 -- -- 49
2021-02-07 11:00:00 15.5 17 Sudoeste 32 Sudoeste 0 -- -- 53
2021-02-07 10:00:00 14.3 9 Oeste 22 Sudoeste 0 -- -- 55
2021-02-07 09:00:00 11.3 8 Sudoeste 18 Sur 0 -- -- 65
2021-02-07 08:00:00 10.4 6 Sudoeste 15 Sudoeste 0 -- -- 66
2021-02-07 07:00:00 11.2 12 Sudoeste 18 Sudoeste 0 -- -- 64
2021-02-07 06:00:00 10.7 9 Sudoeste 16 Sudoeste 0 -- -- 66
2021-02-07 05:00:00 9.5 5 Sudoeste 12 Oeste 0 -- -- 71
2021-02-07 04:00:00 10 7 Oeste 18 Sudoeste 0 -- -- 69
2021-02-07 03:00:00 12.1 10 Sudoeste 19 Sudoeste 0 -- -- 62
2021-02-07 02:00:00 11.8 9 Oeste 19 Sudoeste 0 -- -- 62
2021-02-07 01:00:00 12.6 11 Oeste 21 Oeste 0 -- -- 59
2021-02-07 00:00:00 12.9 12 Sudoeste 23 Oeste 0 -- -- 57
2021-02-06 23:00:00 14.6 16 Oeste 26 Oeste 0 -- -- 50
2021-02-06 22:00:00 14.3 9 Sudoeste 18 Oeste 0 -- -- 51
2021-02-06 21:00:00 14.2 9 Oeste 14 Oeste 0 -- -- 54
2021-02-06 20:00:00 15.2 9 Sudoeste 24 Sur 0 -- -- 59
2021-02-06 19:00:00 16.2 10 Sur 24 Sur 0 -- -- 61
2021-02-06 18:00:00 17 15 Sur 28 Sur 0 -- -- 59
2021-02-06 17:00:00 18.5 14 Sur 30 Sur 0 -- -- 55
2021-02-06 16:00:00 19.6 14 Sur 29 Sudeste 0 -- -- 55
2021-02-06 15:00:00 20.3 8 Oeste 17 Oeste 0 -- -- 39
2021-02-06 14:00:00 18.3 9 Sudoeste 21 Sudoeste 0 -- -- 50
2021-02-06 13:00:00 18.6 7 Sudoeste 20 Oeste 0 -- -- 55
2021-02-06 12:00:00 16.6 8 Oeste 17 Noroeste 0 -- -- 63
2021-02-06 11:00:00 14.7 4 Oeste 9 Noroeste 0 -- -- 71
2021-02-06 10:00:00 11.8 4 Oeste 10 Oeste 0 -- -- 80
2021-02-06 09:00:00 9.6 4 Sudoeste 8 Oeste 0 -- -- 89
2021-02-06 08:00:00 9 0 Calma 13 Sudeste 0 -- -- 88
2021-02-06 07:00:00 11 8 Sudeste 12 Sudeste 0 -- -- 81
2021-02-06 06:00:00 11.1 6 Sudoeste 9 Sur 0 -- -- 81
2021-02-06 05:00:00 11.7 6 Oeste 12 Sudoeste 0 -- -- 79
2021-02-06 04:00:00 12.7 8 Sudeste 10 Sudeste 0 -- -- 76
2021-02-06 03:00:00 13.2 2 Noroeste 13 Sudoeste 0 -- -- 74
2021-02-06 02:00:00 14.3 8 Sudoeste 19 Oeste 0 -- -- 69
2021-02-06 01:00:00 15 13 Oeste 28 Oeste 0 -- -- 68
2021-02-06 00:00:00 14.4 9 Sudoeste 16 Oeste 0 -- -- 77
2021-02-05 23:00:00 14.6 4 Noroeste 24 Sudoeste 0 -- -- 76
2021-02-05 22:00:00 14.8 10 Oeste 21 Sudoeste 0 -- -- 78
2021-02-05 21:00:00 14.4 5 Nordeste 10 Nordeste 0 -- -- 80
2021-02-05 20:00:00 14.3 2 Oeste 19 Nordeste 0 -- -- 81
2021-02-05 19:00:00 14.3 12 Nordeste 22 Nordeste 0 -- -- 83
2021-02-05 18:00:00 14.8 15 Nordeste 30 Nordeste 0 -- -- 80
2021-02-05 17:00:00 15.7 12 Nordeste 31 Este 0 -- -- 76
2021-02-05 16:00:00 16.4 15 Nordeste 30 Nordeste 0 -- -- 74
2021-02-05 15:00:00 16.3 18 Nordeste 30 Este 0 -- -- 74
2021-02-05 14:00:00 16.2 20 Nordeste 36 Nordeste 0 -- -- 76
2021-02-05 13:00:00 16.2 18 Nordeste 33 Nordeste 0 -- -- 74
2021-02-05 12:00:00 16 16 Nordeste 33 Nordeste 0 -- -- 76
2021-02-05 11:00:00 14.3 7 Norte 15 Norte 0 -- -- 90
2021-02-05 10:00:00 11.5 2 Norte 6 Nordeste 0 -- -- 96
2021-02-05 09:00:00 10.1 0 Calma 8 Sudoeste 0 -- -- 95
2021-02-05 08:00:00 9.3 3 Oeste 8 Oeste 0 -- -- 95
2021-02-05 07:00:00 9.6 5 Oeste 9 Sudoeste 0 -- -- 95
2021-02-05 06:00:00 10.4 5 Sudoeste 10 Oeste 0 -- -- 94
2021-02-05 05:00:00 11.3 5 Sudoeste 6 Sudoeste 0 -- -- 93
2021-02-05 04:00:00 11.9 2 Este 8 Este 0 -- -- 93
2021-02-05 03:00:00 12.3 2 Nordeste 16 Norte 0 -- -- 91
2021-02-05 02:00:00 13 8 Nordeste 23 Nordeste 0 -- -- 91
2021-02-05 01:00:00 13.2 10 Nordeste 23 Nordeste 0 -- -- 93
2021-02-05 00:00:00 11.9 8 Este 18 Este 0 -- -- 95
2021-02-04 23:00:00 11.2 0 Calma 6 Sudeste 0 -- -- 93
2021-02-04 22:00:00 11.5 4 Este 10 Sudeste 0 -- -- 93
2021-02-04 21:00:00 11.9 0 Calma 6 Este 0 -- -- 90
2021-02-04 20:00:00 12.3 2 Nordeste 8 Nordeste 0 -- -- 89
2021-02-04 19:00:00 13 4 Nordeste 9 Este 0 -- -- 86
2021-02-04 18:00:00 13.7 6 Este 13 Nordeste 0 -- -- 84
2021-02-04 17:00:00 14.4 6 Este 16 Nordeste 0 -- -- 80
2021-02-04 16:00:00 15 9 Nordeste 16 Este 0 -- -- 80
2021-02-04 15:00:00 15.3 8 Este 19 Este 0 -- -- 78
2021-02-04 14:00:00 15.6 9 Este 17 Nordeste 0 -- -- 76
2021-02-04 13:00:00 14.9 9 Nordeste 19 Este 0 -- -- 79
2021-02-04 12:00:00 14.4 7 Nordeste 17 Nordeste 0 -- -- 82
2021-02-04 11:00:00 14.2 7 Nordeste 13 Nordeste 0 -- -- 85
2021-02-04 10:00:00 11.8 3 Noroeste 7 Oeste 0 -- -- 95
2021-02-04 09:00:00 11.2 4 Noroeste 9 Oeste 0 -- -- 95
2021-02-04 08:00:00 11 4 Oeste 7 Oeste 0 -- -- 95
2021-02-04 07:00:00 11.1 3 Sudoeste 6 Oeste 0 -- -- 95
2021-02-04 06:00:00 11.3 5 Oeste 8 Oeste 0 -- -- 94
2021-02-04 05:00:00 11.8 2 Nordeste 6 Nordeste 0 -- -- 94
2021-02-04 04:00:00 11.1 3 Oeste 8 Oeste 0 -- -- 93
2021-02-04 03:00:00 11.5 4 Oeste 6 Oeste 0 -- -- 91
2021-02-04 02:00:00 11.5 3 Oeste 7 Oeste 0 -- -- 90
2021-02-04 01:00:00 11.1 3 Oeste 5 Oeste 0 -- -- 91
2021-02-04 00:00:00 11.5 3 Sudeste 6 Sudoeste 0 -- -- 89
2021-02-03 23:00:00 12.6 4 Este 10 Este 0 -- -- 90
2021-02-03 22:00:00 12.5 2 Este 5 Este 0 -- -- 84
2021-02-03 21:00:00 12.8 3 Sur 5 Oeste 0 -- -- 77
2021-02-03 20:00:00 14.5 0 Calma 18 Sudeste 0 -- -- 70
2021-02-03 19:00:00 15.5 15 Sudeste 22 Sudeste 0 -- -- 67
2021-02-03 18:00:00 16.2 14 Sudeste 22 Sudeste 0 -- -- 66
2021-02-03 17:00:00 19.6 10 Sudeste 14 Sudeste 0 -- -- 52
2021-02-03 16:00:00 20.5 6 Sudoeste 11 Sudoeste 0 -- -- 46
2021-02-03 15:00:00 19.4 5 Sudeste 13 Sur 0 -- -- 52
2021-02-03 14:00:00 19 7 Sur 13 Sudeste 0 -- -- 51
2021-02-03 13:00:00 17.7 4 Oeste 14 Sudoeste 0 -- -- 53
2021-02-03 12:00:00 16.4 8 Sudoeste 16 Sudoeste 0 -- -- 55
2021-02-03 11:00:00 14.5 5 Oeste 12 Sudoeste 0 -- -- 66
2021-02-03 10:00:00 11.5 4 Oeste 8 Oeste 0 -- -- 77
2021-02-03 09:00:00 9.5 4 Sudoeste 7 Oeste 0 -- -- 86
2021-02-03 08:00:00 8.9 0 Calma 3 Noroeste 0 -- -- 87
2021-02-03 07:00:00 9.4 2 Noroeste 6 Oeste 0 -- -- 85
2021-02-03 06:00:00 9.7 0 Calma 6 Oeste 0 -- -- 85
2021-02-03 05:00:00 10.1 4 Sudoeste 7 Oeste 0 -- -- 85
2021-02-03 04:00:00 10.4 0 Calma 5 Sudeste 0 -- -- 84
2021-02-03 03:00:00 10.8 3 Sudoeste 8 Sudoeste 0 -- -- 82
2021-02-03 02:00:00 11.6 5 Sudoeste 12 Oeste 0 -- -- 80
2021-02-03 01:00:00 12.3 4 Oeste 13 Oeste 0 -- -- 77
2021-02-03 00:00:00 13.5 9 Sudoeste 17 Sudoeste 0 -- -- 73